createdAt,value
2022-11-05T00:02:23.411Z,11.85
2022-11-05T00:05:09.252Z,9.65
2022-11-05T00:08:01.598Z,14.32
2022-11-05T00:10:31.391Z,9.77
2022-11-05T00:13:18.991Z,14.25
2022-11-05T00:16:04.409Z,12.30
2022-11-05T00:18:31.679Z,9.45
2022-11-05T00:20:58.738Z,18.45
2022-11-05T00:23:44.604Z,10.63
2022-11-05T00:26:12.091Z,10.23
2022-11-05T00:28:44.114Z,12.30
2022-11-05T00:31:14.503Z,15.95
2022-11-05T00:33:43.183Z,7.13
2022-11-05T00:36:11.068Z,9.85
2022-11-05T00:38:38.133Z,10.27
2022-11-05T00:41:05.329Z,11.02
2022-11-05T00:43:51.043Z,11.45
2022-11-05T00:46:18.096Z,10.82
2022-11-05T00:49:03.466Z,10.63
2022-11-05T00:51:30.586Z,13.32
2022-11-05T00:53:57.593Z,13.38
2022-11-05T00:56:24.634Z,11.13
2022-11-05T00:58:51.639Z,8.32
2022-11-05T01:01:18.835Z,8.73
2022-11-05T01:03:51.269Z,10.50
2022-11-05T01:06:18.807Z,12.10
2022-11-05T01:08:46.715Z,10.70
2022-11-05T01:11:35.355Z,15.20
2022-11-05T01:14:05.191Z,7.45
2022-11-05T01:16:32.842Z,10.85
2022-11-05T01:19:00.961Z,12.27
2022-11-05T01:21:28.221Z,11.05
2022-11-05T01:23:55.259Z,10.90
2022-11-05T01:26:22.869Z,10.13
2022-11-05T01:28:54.309Z,16.10
2022-11-05T01:31:22.259Z,12.75
2022-11-05T01:33:49.930Z,11.45
2022-11-05T01:36:17.921Z,11.43
2022-11-05T01:38:45.258Z,11.40
2022-11-05T01:41:12.238Z,12.05
2022-11-05T01:43:54.883Z,18.02
2022-11-05T01:46:27.633Z,11.98
2022-11-05T01:49:02.710Z,12.18
2022-11-05T01:51:30.902Z,9.45
2022-11-05T01:54:07.201Z,8.63
2022-11-05T01:56:43.961Z,11.40
2022-11-05T01:59:19.508Z,15.48
2022-11-05T02:01:46.827Z,12.98
2022-11-05T02:04:22.033Z,11.60
2022-11-05T02:06:49.099Z,12.95
2022-11-05T02:09:30.275Z,11.77
2022-11-05T02:11:58.434Z,15.18
2022-11-05T02:14:25.519Z,11.75
2022-11-05T02:17:00.454Z,11.35
2022-11-05T02:19:55.370Z,16.67
2022-11-05T02:22:22.347Z,16.58
2022-11-05T02:25:24.259Z,18.48
2022-11-05T02:28:12.652Z,13.30
2022-11-05T02:30:48.904Z,13.82
2022-11-05T02:33:25.566Z,15.98
2022-11-05T02:36:01.178Z,15.32
2022-11-05T02:38:30.918Z,13.65
2022-11-05T02:41:16.936Z,18.02
2022-11-05T02:43:48.144Z,14.13
2022-11-05T02:46:45.009Z,15.85
2022-11-05T02:49:49.205Z,13.82
2022-11-05T02:52:27.626Z,16.25
2022-11-05T02:55:17.757Z,17.70
2022-11-05T02:57:47.204Z,17.50
2022-11-05T03:00:53.321Z,13.47
2022-11-05T03:03:26.364Z,17.83
2022-11-05T03:05:59.492Z,15.70
2022-11-05T03:08:43.636Z,17.30
2022-11-05T03:11:20.917Z,14.60
2022-11-05T03:14:03.853Z,14.23
2022-11-05T03:16:30.835Z,14.75
2022-11-05T03:19:40.703Z,15.50
2022-11-05T03:22:23.514Z,15.70
2022-11-05T03:24:56.847Z,21.55
2022-11-05T03:27:29.467Z,18.52
2022-11-05T03:30:09.510Z,16.30
2022-11-05T03:32:40.888Z,18.58
2022-11-05T03:35:21.086Z,20.15
2022-11-05T03:37:52.181Z,18.50
2022-11-05T03:40:22.433Z,16.95
2022-11-05T03:42:55.012Z,17.60
2022-11-05T03:45:52.233Z,18.63
2022-11-05T03:48:22.623Z,18.45
2022-11-05T03:50:55.431Z,16.00
2022-11-05T03:53:28.034Z,17.00
2022-11-05T03:56:01.174Z,20.52
2022-11-05T03:58:30.712Z,18.65
2022-11-05T04:01:01.083Z,25.70
2022-11-05T04:06:14.932Z,19.25
2022-11-05T04:09:00.727Z,19.42
2022-11-05T04:11:46.424Z,15.07
2022-11-05T04:14:13.455Z,18.00
2022-11-05T04:16:58.861Z,16.25
2022-11-05T04:19:44.389Z,11.70
2022-11-05T04:22:29.881Z,16.33
2022-11-05T04:24:56.833Z,14.88
2022-11-05T04:27:23.956Z,13.50
2022-11-05T04:30:09.547Z,13.95
2022-11-05T04:32:36.535Z,15.00
2022-11-05T04:35:03.604Z,21.88
2022-11-05T04:37:30.570Z,18.05
2022-11-05T04:39:57.667Z,18.73
2022-11-05T04:42:24.672Z,18.48
2022-11-05T04:44:51.693Z,19.73
2022-11-05T04:47:18.728Z,25.85
2022-11-05T04:49:45.722Z,17.13
2022-11-05T04:52:12.729Z,18.48
2022-11-05T04:54:39.802Z,19.40
2022-11-05T04:57:06.839Z,20.33
2022-11-05T04:59:33.807Z,20.23
2022-11-05T05:02:00.824Z,24.08
2022-11-05T05:04:27.923Z,23.63
2022-11-05T05:06:54.895Z,18.75
2022-11-05T05:09:21.945Z,18.58
2022-11-05T05:11:48.947Z,18.58
2022-11-05T05:14:15.986Z,22.75
2022-11-05T05:16:42.982Z,18.00
2022-11-05T05:19:10.009Z,23.92
2022-11-05T05:21:40.366Z,16.52
2022-11-05T05:26:47.072Z,22.92
2022-11-05T05:29:15.233Z,15.30
2022-11-05T05:31:42.916Z,19.42
2022-11-05T05:34:14.551Z,18.92
2022-11-05T05:36:41.758Z,25.70
2022-11-05T05:39:11.034Z,18.70
2022-11-05T05:41:38.394Z,20.27
2022-11-05T05:44:06.438Z,17.60
2022-11-05T05:46:33.433Z,19.27
2022-11-05T05:49:00.509Z,19.75
2022-11-05T05:51:27.545Z,20.05
2022-11-05T05:53:54.990Z,20.48
2022-11-05T05:56:22.288Z,18.80
2022-11-05T05:58:49.392Z,20.60
2022-11-05T06:01:19.608Z,22.80
2022-11-05T06:03:48.419Z,21.92
2022-11-05T06:06:19.786Z,20.63
2022-11-05T06:08:47.729Z,25.35
2022-11-05T06:11:15.232Z,20.60
2022-11-05T06:13:42.343Z,20.42
2022-11-05T06:16:10.425Z,22.25
2022-11-05T06:18:37.932Z,19.13
2022-11-05T06:21:10.511Z,22.85
2022-11-05T06:23:39.310Z,25.25
2022-11-05T06:26:08.870Z,19.85
2022-11-05T06:28:35.963Z,22.70
2022-11-05T06:31:03.802Z,21.50
2022-11-05T06:33:30.868Z,19.48
2022-11-05T06:36:02.742Z,29.23
2022-11-05T06:38:32.831Z,24.20
2022-11-05T06:41:03.340Z,19.25
2022-11-05T06:43:33.296Z,18.60
2022-11-05T06:46:02.815Z,24.55
2022-11-05T06:48:29.928Z,20.63
2022-11-05T06:50:57.135Z,23.92
2022-11-05T06:53:24.576Z,21.33
2022-11-05T06:55:51.732Z,26.13
2022-11-05T06:58:19.018Z,20.52
2022-11-05T07:00:46.491Z,16.85
2022-11-05T07:03:14.822Z,27.10
2022-11-05T07:05:46.991Z,26.55
2022-11-05T07:08:14.500Z,21.55
2022-11-05T07:10:41.537Z,19.10
2022-11-05T07:13:09.073Z,28.38
2022-11-05T07:15:37.393Z,28.05
2022-11-05T07:18:05.328Z,27.75
2022-11-05T07:20:34.137Z,18.20
2022-11-05T07:23:19.781Z,19.13
2022-11-05T07:25:46.862Z,19.20
2022-11-05T07:28:14.677Z,17.67
2022-11-05T07:30:41.738Z,19.48
2022-11-05T07:33:09.561Z,16.73
2022-11-05T07:35:36.827Z,17.25
2022-11-05T07:38:03.901Z,19.65
2022-11-05T07:40:31.067Z,19.30
2022-11-05T07:43:00.338Z,18.40
2022-11-05T07:45:29.632Z,19.90
2022-11-05T07:47:59.192Z,17.63
2022-11-05T07:50:29.334Z,30.48
2022-11-05T07:53:07.894Z,28.40
2022-11-05T07:55:35.400Z,21.67
2022-11-05T07:58:03.292Z,20.27
2022-11-05T08:00:30.583Z,14.90
2022-11-05T08:03:14.728Z,15.35
2022-11-05T08:05:44.767Z,25.30
2022-11-05T08:08:17.389Z,19.48
2022-11-05T08:10:44.865Z,17.60
2022-11-05T08:13:13.445Z,21.70
2022-11-05T08:15:42.383Z,20.23
2022-11-05T08:18:15.201Z,26.30
2022-11-05T08:20:43.729Z,18.75
2022-11-05T08:23:11.306Z,18.40
2022-11-05T08:25:39.874Z,23.15
2022-11-05T08:28:10.547Z,19.67
2022-11-05T08:30:37.950Z,24.13
2022-11-05T08:33:08.340Z,20.35
2022-11-05T08:35:37.639Z,17.40
2022-11-05T08:38:07.110Z,25.95
2022-11-05T08:40:35.310Z,24.73
2022-11-05T08:43:04.478Z,20.05
2022-11-05T08:45:32.046Z,18.17
2022-11-05T08:48:05.444Z,20.10
2022-11-05T08:50:33.470Z,19.92
2022-11-05T08:53:00.608Z,22.63
2022-11-05T08:55:27.773Z,20.77
2022-11-05T08:57:59.168Z,20.27
2022-11-05T09:00:27.418Z,23.73
2022-11-05T09:02:54.556Z,20.45
2022-11-05T09:05:21.686Z,24.65
2022-11-05T09:07:49.499Z,21.38
2022-11-05T09:10:16.668Z,15.90
2022-11-05T09:12:44.243Z,19.52
2022-11-05T09:15:11.392Z,15.40
2022-11-05T09:17:38.483Z,17.42
2022-11-05T09:20:07.096Z,13.23
2022-11-05T09:22:37.876Z,15.43
2022-11-05T09:25:08.292Z,11.95
2022-11-05T09:27:35.903Z,10.80
2022-11-05T09:30:03.232Z,10.15
2022-11-05T09:32:31.722Z,14.30
2022-11-05T09:35:01.134Z,16.30
2022-11-05T09:37:29.180Z,20.10
2022-11-05T09:39:56.291Z,14.90
2022-11-05T09:42:29.327Z,14.15
2022-11-05T09:45:03.939Z,12.07
2022-11-05T09:47:39.403Z,14.30
2022-11-05T09:50:25.774Z,14.27
2022-11-05T09:52:52.845Z,15.70
2022-11-05T09:55:33.546Z,16.25
2022-11-05T09:58:03.900Z,12.98
2022-11-05T10:03:04.835Z,15.23
2022-11-05T10:05:33.947Z,13.50
2022-11-05T10:08:11.087Z,11.52
2022-11-05T10:10:59.174Z,10.60
2022-11-05T10:13:36.577Z,9.18
2022-11-05T10:16:08.080Z,27.85
2022-11-05T10:18:38.359Z,20.33
2022-11-05T10:23:33.550Z,14.30
2022-11-05T10:26:05.284Z,12.70
2022-11-05T10:28:34.484Z,11.23
2022-11-05T10:31:05.998Z,10.50
2022-11-05T10:33:47.400Z,14.02
2022-11-05T10:36:26.035Z,9.07
2022-11-05T10:38:57.145Z,24.50
2022-11-05T10:41:27.260Z,9.27
2022-11-05T10:44:03.585Z,11.85
2022-11-05T10:46:42.249Z,9.07
2022-11-05T10:49:09.220Z,12.18
2022-11-05T10:51:36.554Z,7.65
2022-11-05T10:54:19.590Z,8.70
2022-11-05T10:56:47.180Z,11.70
2022-11-05T10:59:30.016Z,12.02
2022-11-05T11:02:11.977Z,12.95
2022-11-05T11:04:39.674Z,12.90
2022-11-05T11:07:21.506Z,5.85
2022-11-05T11:09:50.112Z,6.10
2022-11-05T11:12:21.770Z,11.90
2022-11-05T11:15:00.547Z,6.05
2022-11-05T11:17:31.126Z,16.77
2022-11-05T11:20:24.481Z,9.30
2022-11-05T11:23:04.446Z,5.93
2022-11-05T11:25:53.163Z,7.97
2022-11-05T11:28:33.008Z,3.25
2022-11-05T11:31:02.961Z,12.57
2022-11-05T11:33:31.480Z,7.70
2022-11-05T11:35:59.079Z,3.72
2022-11-05T11:38:33.710Z,7.88
2022-11-05T11:41:21.230Z,4.78
2022-11-05T11:43:48.740Z,5.65
2022-11-05T11:46:19.847Z,5.63
2022-11-05T11:48:49.117Z,6.00
2022-11-05T11:51:40.492Z,4.97
2022-11-05T11:54:20.978Z,8.98
2022-11-05T11:56:48.956Z,8.05
2022-11-05T11:59:54.023Z,6.05
2022-11-05T12:02:32.357Z,6.93
2022-11-05T12:05:16.259Z,7.53
2022-11-05T12:07:58.110Z,4.78
2022-11-05T12:10:34.392Z,8.10
2022-11-05T12:13:20.613Z,9.45
2022-11-05T12:15:55.034Z,5.28
2022-11-05T12:18:31.287Z,6.72
2022-11-05T12:21:47.795Z,2.97
2022-11-05T12:24:52.107Z,8.50
2022-11-05T12:27:44.111Z,4.83
2022-11-05T12:30:15.214Z,9.45
2022-11-05T12:33:06.688Z,8.95
2022-11-05T12:35:57.434Z,6.65
2022-11-05T12:38:51.115Z,13.80
2022-11-05T12:41:31.434Z,5.15
2022-11-05T12:46:46.806Z,6.03
2022-11-05T12:49:47.692Z,3.80
2022-11-05T12:52:44.961Z,7.80
2022-11-05T12:55:19.259Z,5.97
2022-11-05T12:57:52.681Z,8.13
2022-11-05T13:00:22.377Z,5.85
2022-11-05T13:02:59.711Z,1.90
2022-11-05T13:05:43.474Z,8.65
2022-11-05T13:08:25.851Z,5.35
2022-11-05T13:11:06.893Z,5.05
2022-11-05T13:14:13.927Z,5.57
2022-11-05T13:16:48.675Z,5.32
2022-11-05T13:19:39.868Z,2.30
2022-11-05T13:22:41.228Z,5.70
2022-11-05T13:25:17.359Z,3.75
2022-11-05T13:28:14.442Z,2.90
2022-11-05T13:30:45.887Z,4.40
2022-11-05T13:33:31.280Z,11.48
2022-11-05T13:37:09.379Z,6.38
2022-11-05T13:39:42.522Z,3.22
2022-11-05T13:42:18.369Z,6.28
2022-11-05T13:44:57.902Z,2.72
2022-11-05T13:47:30.661Z,4.27
2022-11-05T13:50:12.491Z,2.42
2022-11-05T13:52:51.270Z,6.90
2022-11-05T13:55:33.666Z,4.47
2022-11-05T13:58:19.317Z,2.40
2022-11-05T14:01:25.359Z,7.50
2022-11-05T14:03:55.123Z,7.95
2022-11-05T14:06:31.919Z,5.40
2022-11-05T14:09:02.529Z,1.98
2022-11-05T14:11:40.438Z,6.90
2022-11-05T14:14:16.451Z,1.95
2022-11-05T14:17:15.311Z,5.95
2022-11-05T14:20:07.036Z,4.32
2022-11-05T14:22:34.043Z,2.80
2022-11-05T14:25:02.730Z,7.93
2022-11-05T14:27:29.712Z,3.47
2022-11-05T14:29:56.722Z,4.85
2022-11-05T14:32:42.386Z,5.47
2022-11-05T14:35:15.554Z,5.15
2022-11-05T14:37:54.869Z,4.28
2022-11-05T14:40:21.820Z,6.15
2022-11-05T14:42:58.626Z,5.00
2022-11-05T14:45:30.159Z,5.85
2022-11-05T14:48:03.500Z,4.10
2022-11-05T14:50:36.496Z,6.20
2022-11-05T14:53:28.630Z,4.82
2022-11-05T14:56:03.940Z,4.15
2022-11-05T14:58:42.030Z,6.85
2022-11-05T15:01:31.998Z,8.50
2022-11-05T15:04:40.685Z,5.28
2022-11-05T15:07:07.602Z,4.80
2022-11-05T15:09:34.614Z,4.90
2022-11-05T15:12:07.261Z,6.20
2022-11-05T15:14:55.922Z,4.65
2022-11-05T15:17:33.722Z,6.60
2022-11-05T15:20:16.724Z,3.42
2022-11-05T15:22:47.407Z,7.32
2022-11-05T15:25:42.144Z,3.90
2022-11-05T15:28:31.410Z,6.07
2022-11-05T15:31:02.550Z,3.05
2022-11-05T15:33:30.474Z,3.22
2022-11-05T15:36:33.427Z,3.22
2022-11-05T15:39:28.874Z,8.25
2022-11-05T15:41:47.702Z,9.43
2022-11-05T15:44:29.755Z,7.07
2022-11-05T15:47:25.375Z,5.10
2022-11-05T15:50:14.644Z,7.38
2022-11-05T15:52:50.627Z,8.10
2022-11-05T15:55:24.194Z,7.57
2022-11-05T15:58:04.167Z,8.48
2022-11-05T16:00:34.211Z,6.28
2022-11-05T16:03:16.395Z,10.23
2022-11-05T16:05:46.435Z,11.55
2022-11-05T16:08:22.119Z,4.50
2022-11-05T16:10:52.024Z,6.72
2022-11-05T16:13:32.557Z,9.00
2022-11-05T16:16:22.600Z,6.05
2022-11-05T16:18:49.669Z,7.50
2022-11-05T16:21:19.513Z,8.30
2022-11-05T16:23:57.978Z,12.38
2022-11-05T16:29:32.372Z,19.52
2022-11-05T16:32:05.677Z,14.38
2022-11-05T16:34:38.612Z,14.90
2022-11-05T16:37:07.368Z,15.00
2022-11-05T16:39:34.569Z,16.27
2022-11-05T16:42:01.605Z,19.27
2022-11-05T16:44:28.845Z,9.77
2022-11-05T16:46:55.922Z,11.15
2022-11-05T16:49:22.925Z,13.98
2022-11-05T16:51:49.905Z,13.77
2022-11-05T16:54:16.932Z,15.93
2022-11-05T16:56:45.311Z,15.00
2022-11-05T16:59:13.701Z,13.00
2022-11-05T17:01:42.591Z,16.63
2022-11-05T17:04:13.014Z,15.80
2022-11-05T17:09:08.026Z,17.50
2022-11-05T17:11:38.080Z,18.02
2022-11-05T17:14:06.602Z,13.68
2022-11-05T17:16:38.168Z,18.10
2022-11-05T17:19:07.379Z,18.63
2022-11-05T17:21:35.253Z,17.35
2022-11-05T17:24:03.568Z,13.57
2022-11-05T17:26:31.801Z,19.08
2022-11-05T17:29:00.406Z,19.50
2022-11-05T17:31:29.671Z,13.85
2022-11-05T17:33:59.495Z,18.27
2022-11-05T17:36:29.003Z,20.83
2022-11-05T17:38:57.484Z,10.57
2022-11-05T17:41:26.782Z,11.30
2022-11-05T17:43:57.309Z,7.68
2022-11-05T17:46:26.103Z,7.15
2022-11-05T17:48:55.022Z,15.75
2022-11-05T17:51:23.344Z,9.73
2022-11-05T17:53:51.601Z,14.35
2022-11-05T17:56:33.549Z,22.48
2022-11-05T17:59:04.075Z,15.30
2022-11-05T18:01:36.094Z,8.43
2022-11-05T18:04:08.878Z,7.35
2022-11-05T18:06:40.253Z,7.72
2022-11-05T18:09:09.968Z,7.32
2022-11-05T18:11:39.374Z,13.07
2022-11-05T18:14:08.865Z,10.90
2022-11-05T18:16:37.890Z,7.72
2022-11-05T18:19:06.567Z,9.32
2022-11-05T18:21:34.725Z,13.60
2022-11-05T18:24:07.088Z,9.07
2022-11-05T18:26:36.304Z,13.05
2022-11-05T18:29:06.523Z,13.32
2022-11-05T18:34:03.315Z,11.73
2022-11-05T18:36:33.912Z,11.57
2022-11-05T18:39:04.442Z,15.48
2022-11-05T18:41:33.949Z,11.63
2022-11-05T18:44:03.965Z,8.63
2022-11-05T18:46:56.936Z,10.68
2022-11-05T18:49:22.176Z,6.93
2022-11-05T18:51:50.477Z,9.82
2022-11-05T18:54:19.508Z,10.50
2022-11-05T18:56:47.979Z,13.00
2022-11-05T19:02:11.763Z,9.57
2022-11-05T19:04:46.836Z,11.52
2022-11-05T19:07:24.452Z,9.60
2022-11-05T19:09:51.844Z,9.95
2022-11-05T19:12:18.916Z,10.77
2022-11-05T19:14:46.072Z,10.05
2022-11-05T19:17:13.600Z,10.10
2022-11-05T19:19:40.668Z,9.32
2022-11-05T19:22:07.678Z,6.22
2022-11-05T19:24:34.816Z,8.30
2022-11-05T19:27:02.229Z,7.82
2022-11-05T19:29:29.442Z,9.45
2022-11-05T19:31:56.630Z,8.30
2022-11-05T19:34:23.747Z,8.60
2022-11-05T19:36:50.927Z,7.82
2022-11-05T19:39:18.359Z,10.25
2022-11-05T19:41:45.543Z,7.75
2022-11-05T19:44:13.686Z,8.60
2022-11-05T19:46:41.727Z,6.78
2022-11-05T19:49:09.076Z,7.07
2022-11-05T19:51:38.202Z,11.25
2022-11-05T19:54:08.216Z,10.25
2022-11-05T19:56:36.970Z,10.70
2022-11-05T19:59:07.469Z,7.00
2022-11-05T20:01:35.186Z,7.13
2022-11-05T20:04:02.686Z,6.47
2022-11-05T20:06:38.978Z,6.65
2022-11-05T20:09:25.824Z,5.70
2022-11-05T20:11:57.147Z,4.22
2022-11-05T20:16:52.434Z,5.53
2022-11-05T20:19:22.145Z,11.48
2022-11-05T20:21:50.102Z,7.13
2022-11-05T20:24:23.602Z,8.05
2022-11-05T20:26:53.379Z,9.68
2022-11-05T20:29:20.835Z,5.78
2022-11-05T20:31:48.756Z,8.77
2022-11-05T20:34:16.069Z,6.82
2022-11-05T20:36:45.611Z,10.02
2022-11-05T20:39:12.817Z,5.60
2022-11-05T20:41:39.902Z,7.57
2022-11-05T20:44:08.068Z,7.63
2022-11-05T20:46:37.124Z,4.88
2022-11-05T20:49:04.642Z,7.05
2022-11-05T20:51:32.028Z,6.40
2022-11-05T20:54:01.235Z,7.80
2022-11-05T20:56:35.005Z,9.20
2022-11-05T20:59:03.364Z,10.10
2022-11-05T21:01:33.455Z,6.20
2022-11-05T21:04:00.789Z,11.05
2022-11-05T21:06:27.947Z,8.05
2022-11-05T21:08:56.162Z,7.32
2022-11-05T21:11:24.291Z,9.07
2022-11-05T21:13:51.870Z,7.65
2022-11-05T21:16:23.778Z,6.55
2022-11-05T21:18:52.180Z,8.30
2022-11-05T21:21:21.100Z,6.78
2022-11-05T21:23:48.648Z,6.82
2022-11-05T21:26:17.798Z,8.23
2022-11-05T21:28:45.181Z,5.60
2022-11-05T21:31:12.909Z,14.65
2022-11-05T21:33:40.511Z,4.88
2022-11-05T21:36:10.066Z,11.95
2022-11-05T21:38:37.637Z,3.92
2022-11-05T21:41:05.479Z,7.40
2022-11-05T21:43:33.045Z,4.30
2022-11-05T21:46:04.895Z,6.00
2022-11-05T21:48:32.307Z,6.40
2022-11-05T21:51:18.283Z,5.97
2022-11-05T21:54:03.765Z,5.72
2022-11-05T21:56:49.546Z,6.43
2022-11-05T21:59:37.648Z,9.15
2022-11-05T22:02:04.974Z,6.07
2022-11-05T22:04:38.657Z,8.43
2022-11-05T22:07:07.188Z,7.97
2022-11-05T22:09:34.703Z,5.78
2022-11-05T22:12:02.464Z,6.38
2022-11-05T22:14:29.853Z,8.32
2022-11-05T22:16:57.777Z,5.10
2022-11-05T22:19:25.312Z,5.22
2022-11-05T22:21:52.875Z,4.70
2022-11-05T22:24:20.253Z,4.65
2022-11-05T22:26:47.546Z,4.38
2022-11-05T22:29:14.579Z,3.78
2022-11-05T22:31:42.323Z,7.65
2022-11-05T22:34:11.554Z,12.93
2022-11-05T22:36:38.641Z,6.50
2022-11-05T22:39:05.819Z,7.28
2022-11-05T22:41:33.148Z,6.07
2022-11-05T22:44:00.235Z,7.03
2022-11-05T22:46:27.715Z,8.02
2022-11-05T22:48:56.289Z,8.55
2022-11-05T22:51:26.253Z,8.88
2022-11-05T22:53:54.835Z,6.10
2022-11-05T22:56:25.174Z,5.65
2022-11-05T22:58:52.678Z,11.23
2022-11-05T23:01:21.551Z,8.45
2022-11-05T23:03:50.194Z,13.32
2022-11-05T23:06:41.364Z,8.80
2022-11-05T23:09:39.367Z,4.53
2022-11-05T23:12:09.571Z,6.93
2022-11-05T23:14:37.087Z,8.35
2022-11-05T23:17:22.609Z,10.00
2022-11-05T23:20:07.955Z,4.60
2022-11-05T23:22:53.483Z,8.02
2022-11-05T23:25:22.165Z,4.95
2022-11-05T23:27:51.926Z,5.80
2022-11-05T23:30:22.293Z,6.70
2022-11-05T23:35:17.411Z,5.95
2022-11-05T23:38:03.078Z,7.90
2022-11-05T23:40:51.862Z,7.70
2022-11-05T23:43:37.595Z,7.80
2022-11-05T23:46:23.385Z,9.57
2022-11-05T23:48:50.913Z,7.85
2022-11-05T23:51:18.309Z,6.32
2022-11-05T23:53:45.307Z,11.07
2022-11-05T23:56:14.745Z,11.82
2022-11-05T23:58:42.773Z,5.70
